Time;durP1;ratioP1;P1;durP2;ratioP2;P2;SDS_P1;SDS_P2;PMS_P1;PMS_P2;Temp;Humidity;BMP_temperature;BMP_pressure;BME280_temperature;BME280_humidity;BME280_pressure;Samples;Min_cycle;Max_cycle;Signal;HPM_P1;HPM_P2
2023/02/06 00:02:24;;;;;;;7.88;6.18;;;;;;;;;;5074434;28;20250;-88
2023/02/06 00:04:55;;;;;;;7.47;5.30;;;;;;;;;;5074264;28;20286;-87
2023/02/06 00:07:29;;;;;;;7.03;5.50;;;;;;;;;;5076110;28;20692;-86
2023/02/06 00:10:06;;;;;;;6.68;5.28;;;;;;;;;;5078311;28;20185;-88
2023/02/06 00:12:48;;;;;;;;;;;;;;;;;;;;;
2023/02/06 00:15:19;;;;;;;5.63;5.13;;;;;;;;;;5078603;28;20287;-88
2023/02/06 00:17:47;;;;;;;6.78;5.18;;;;;;;;;;5086955;22;20225;-83
2023/02/06 00:20:14;;;;;;;5.25;4.43;;;;;;;;;;5066264;28;20236;-83
2023/02/06 00:22:42;;;;;;;5.15;4.65;;;;;;;;;;5074571;28;20204;-83
2023/02/06 00:25:11;;;;;;;6.22;5.25;;;;;;;;;;5074803;28;20224;-83
2023/02/06 00:27:38;;;;;;;6.10;5.05;;;;;;;;;;5074340;28;20239;-83
2023/02/06 00:30:07;;;;;;;5.88;5.20;;;;;;;;;;5073614;28;20283;-83
2023/02/06 00:32:35;;;;;;;5.13;4.50;;;;;;;;;;5074087;28;20201;-83
2023/02/06 00:35:03;;;;;;;7.53;6.18;;;;;;;;;;5074110;28;20236;-82
2023/02/06 00:37:30;;;;;;;8.77;6.55;;;;;;;;;;5074493;28;20588;-84
2023/02/06 00:39:58;;;;;;;6.43;5.82;;;;;;;;;;5072939;28;20231;-84
2023/02/06 00:42:27;;;;;;;7.35;6.53;;;;;;;;;;5074334;28;20303;-84
2023/02/06 00:44:54;;;;;;;8.18;6.25;;;;;;;;;;5074153;28;20232;-83
2023/02/06 00:47:22;;;;;;;7.63;5.47;;;;;;;;;;5074563;28;20300;-83
2023/02/06 00:49:49;;;;;;;8.52;5.95;;;;;;;;;;5073125;28;20205;-83
2023/02/06 00:52:16;;;;;;;6.20;5.35;;;;;;;;;;5074100;28;20324;-83
2023/02/06 00:54:44;;;;;;;5.55;5.05;;;;;;;;;;5074170;28;20324;-82
2023/02/06 00:57:11;;;;;;;6.13;5.28;;;;;;;;;;5073946;28;20296;-82
2023/02/06 00:59:40;;;;;;;5.68;5.03;;;;;;;;;;5073349;28;20308;-83
2023/02/06 01:02:08;;;;;;;6.10;4.70;;;;;;;;;;5073854;28;20304;-83
2023/02/06 01:04:35;;;;;;;6.60;5.78;;;;;;;;;;5089216;22;20243;-82
2023/02/06 01:07:03;;;;;;;5.80;4.60;;;;;;;;;;5073856;28;20587;-82
2023/02/06 01:09:30;;;;;;;6.13;4.50;;;;;;;;;;5073514;28;20555;-81
2023/02/06 01:11:58;;;;;;;5.93;5.13;;;;;;;;;;5073640;28;20213;-81
2023/02/06 01:14:25;;;;;;;4.55;4.15;;;;;;;;;;5072300;28;20217;-81
2023/02/06 01:16:54;;;;;;;4.30;3.90;;;;;;;;;;5073442;28;20205;-81
2023/02/06 01:19:21;;;;;;;4.68;4.22;;;;;;;;;;5080243;28;20688;-82
2023/02/06 01:21:49;;;;;;;4.55;4.10;;;;;;;;;;5091563;28;20303;-82
2023/02/06 01:24:16;;;;;;;5.15;3.97;;;;;;;;;;5093483;28;20225;-81
2023/02/06 01:26:44;;;;;;;5.43;3.97;;;;;;;;;;5093204;28;20873;-82
2023/02/06 01:29:11;;;;;;;5.80;3.90;;;;;;;;;;5093064;28;20287;-83
2023/02/06 01:31:38;;;;;;;5.07;4.35;;;;;;;;;;5093101;28;20231;-82
2023/02/06 01:34:09;;;;;;;5.63;4.82;;;;;;;;;;5093678;28;20247;-82
2023/02/06 01:36:36;;;;;;;6.78;4.72;;;;;;;;;;5093720;28;20201;-81
2023/02/06 01:39:04;;;;;;;5.82;5.28;;;;;;;;;;5093178;28;20292;-81
2023/02/06 01:41:32;;;;;;;7.25;5.05;;;;;;;;;;5093502;28;20201;-82
2023/02/06 01:44:14;;;;;;;5.07;4.68;;;;;;;;;;5093506;28;20284;-82
2023/02/06 01:46:43;;;;;;;6.07;4.80;;;;;;;;;;5093835;28;20291;-82
2023/02/06 01:49:16;;;;;;;6.30;4.53;;;;;;;;;;5072950;28;20587;-81
2023/02/06 01:51:44;;;;;;;5.45;4.82;;;;;;;;;;5089894;28;20200;-81
2023/02/06 01:54:12;;;;;;;6.75;4.50;;;;;;;;;;5093635;28;20228;-82
2023/02/06 01:56:43;;;;;;;5.75;4.28;;;;;;;;;;5093229;28;20231;-82
2023/02/06 01:59:10;;;;;;;7.28;5.38;;;;;;;;;;5092733;28;20192;-81
2023/02/06 02:01:38;;;;;;;5.85;5.18;;;;;;;;;;5093044;28;20203;-81
2023/02/06 02:04:08;;;;;;;5.82;4.70;;;;;;;;;;5093088;28;20315;-83
2023/02/06 02:06:37;;;;;;;5.80;4.50;;;;;;;;;;5093364;28;20284;-81
2023/02/06 02:09:05;;;;;;;5.38;4.38;;;;;;;;;;5092348;28;20208;-82
2023/02/06 02:11:35;;;;;;;4.72;4.30;;;;;;;;;;5093022;28;20295;-82
2023/02/06 02:14:06;;;;;;;4.60;4.13;;;;;;;;;;5091900;28;20309;-81
2023/02/06 02:16:42;;;;;;;4.93;4.03;;;;;;;;;;5092835;28;20677;-81
2023/02/06 02:19:47;;;;;;;3.95;3.63;;;;;;;;;;5072121;28;20236;-82
2023/02/06 02:22:48;;;;;;;4.80;3.70;;;;;;;;;;5072415;28;20201;-82
2023/02/06 02:25:58;;;;;;;5.57;4.07;;;;;;;;;;5072344;28;20221;-82
2023/02/06 02:29:08;;;;;;;3.85;3.10;;;;;;;;;;5071865;28;20203;-82
2023/02/06 02:32:33;;;;;;;5.70;3.78;;;;;;;;;;5076704;28;20649;-82
2023/02/06 02:35:27;;;;;;;3.95;3.55;;;;;;;;;;5071797;28;20231;-81
2023/02/06 02:38:08;;;;;;;6.40;4.45;;;;;;;;;;5071880;28;20761;-82
2023/02/06 02:40:45;;;;;;;4.40;3.63;;;;;;;;;;5071740;28;20219;-82
2023/02/06 02:43:21;;;;;;;4.38;3.97;;;;;;;;;;5071783;28;20197;-82
2023/02/06 02:45:52;;;;;;;4.25;3.80;;;;;;;;;;5071799;28;20250;-82
2023/02/06 02:48:24;;;;;;;3.95;3.65;;;;;;;;;;5072122;28;20201;-82
2023/02/06 02:50:54;;;;;;;5.50;3.92;;;;;;;;;;5074330;28;20654;-82
2023/02/06 02:53:21;;;;;;;5.35;3.88;;;;;;;;;;5073717;28;20619;-82
2023/02/06 02:55:49;;;;;;;6.68;4.03;;;;;;;;;;5072529;28;20205;-82
2023/02/06 02:58:24;;;;;;;4.30;3.88;;;;;;;;;;5071978;28;20224;-82
2023/02/06 03:00:56;;;;;;;5.53;5.03;;;;;;;;;;5072539;28;20228;-82
2023/02/06 03:03:27;;;;;;;6.88;4.88;;;;;;;;;;5072503;28;20197;-82
2023/02/06 03:06:15;;;;;;;6.25;4.85;;;;;;;;;;5072296;28;20731;-82
2023/02/06 03:08:49;;;;;;;5.68;4.63;;;;;;;;;;5071482;28;20211;-82
2023/02/06 03:11:18;;;;;;;5.72;4.50;;;;;;;;;;5071969;28;20613;-82
2023/02/06 03:13:53;;;;;;;7.32;5.70;;;;;;;;;;5071017;28;20229;-82
2023/02/06 03:16:25;;;;;;;5.35;4.63;;;;;;;;;;5071948;28;20227;-81
2023/02/06 03:18:58;;;;;;;6.35;4.30;;;;;;;;;;5071053;28;20743;-82
2023/02/06 03:21:28;;;;;;;6.32;4.85;;;;;;;;;;5071740;28;20799;-82
2023/02/06 03:23:59;;;;;;;7.30;4.55;;;;;;;;;;5071654;28;20315;-82
2023/02/06 03:26:28;;;;;;;5.28;4.30;;;;;;;;;;5071329;28;20195;-82
2023/02/06 03:29:00;;;;;;;5.57;4.13;;;;;;;;;;5071454;28;20244;-82
2023/02/06 03:31:31;;;;;;;8.65;5.88;;;;;;;;;;5071856;28;20212;-82
2023/02/06 03:34:04;;;;;;;7.18;5.70;;;;;;;;;;5072298;28;20311;-82
2023/02/06 03:36:33;;;;;;;8.18;6.35;;;;;;;;;;5073548;28;20234;-82
2023/02/06 03:39:01;;;;;;;7.80;6.88;;;;;;;;;;5072179;28;20237;-82
2023/02/06 03:41:32;;;;;;;8.18;7.00;;;;;;;;;;5073856;28;20743;-83
2023/02/06 03:44:00;;;;;;;12.30;7.68;;;;;;;;;;5076569;28;20239;-82
2023/02/06 03:46:29;;;;;;;11.00;6.57;;;;;;;;;;5075684;28;20197;-82
2023/02/06 03:48:59;;;;;;;6.97;6.25;;;;;;;;;;5075360;28;20204;-82
2023/02/06 03:51:30;;;;;;;10.40;7.15;;;;;;;;;;5076253;28;20200;-83
2023/02/06 03:54:01;;;;;;;14.27;7.68;;;;;;;;;;5075823;28;20209;-82
2023/02/06 03:56:33;;;;;;;8.30;6.75;;;;;;;;;;5075452;28;20588;-82
2023/02/06 03:59:00;;;;;;;7.88;7.10;;;;;;;;;;5075243;28;20213;-82
2023/02/06 04:01:28;;;;;;;7.72;6.80;;;;;;;;;;5075567;28;20319;-82
2023/02/06 04:03:56;;;;;;;13.15;8.20;;;;;;;;;;5075124;28;20319;-82
2023/02/06 04:06:24;;;;;;;9.18;6.97;;;;;;;;;;5075250;28;20200;-82
2023/02/06 04:08:52;;;;;;;10.23;6.60;;;;;;;;;;5074402;28;20223;-82
2023/02/06 04:11:21;;;;;;;8.32;7.32;;;;;;;;;;5075164;28;20201;-82
2023/02/06 04:13:48;;;;;;;8.15;6.82;;;;;;;;;;5074307;28;20311;-81
2023/02/06 04:16:16;;;;;;;9.35;7.10;;;;;;;;;;5075192;28;20607;-82
2023/02/06 04:18:43;;;;;;;8.68;7.57;;;;;;;;;;5074472;28;20213;-81
2023/02/06 04:21:11;;;;;;;9.40;7.50;;;;;;;;;;5074774;28;20246;-82
2023/02/06 04:23:38;;;;;;;9.63;7.28;;;;;;;;;;5074837;28;20247;-82
2023/02/06 04:26:05;;;;;;;10.15;7.15;;;;;;;;;;5073885;28;20213;-82
2023/02/06 04:28:34;;;;;;;13.75;7.32;;;;;;;;;;5074274;28;20203;-82
2023/02/06 04:31:02;;;;;;;8.02;7.22;;;;;;;;;;5074806;28;20205;-83
2023/02/06 04:33:29;;;;;;;8.60;7.47;;;;;;;;;;5072955;28;20291;-81
2023/02/06 04:35:57;;;;;;;11.00;6.93;;;;;;;;;;5075006;28;20665;-82
2023/02/06 04:38:24;;;;;;;10.13;7.35;;;;;;;;;;5073722;28;20197;-82
2023/02/06 04:40:52;;;;;;;7.28;6.22;;;;;;;;;;5074129;28;20221;-82
2023/02/06 04:43:19;;;;;;;7.60;6.32;;;;;;;;;;5074365;28;20254;-81
2023/02/06 04:45:48;;;;;;;8.13;6.20;;;;;;;;;;5073762;28;20227;-82
2023/02/06 04:48:16;;;;;;;9.63;6.93;;;;;;;;;;5073434;28;20209;-81
2023/02/06 04:50:43;;;;;;;11.35;6.25;;;;;;;;;;5074325;28;20208;-82
2023/02/06 04:53:11;;;;;;;7.03;5.72;;;;;;;;;;5073962;28;20201;-82
2023/02/06 04:55:38;;;;;;;9.15;5.63;;;;;;;;;;5073750;28;20225;-82
2023/02/06 04:58:05;;;;;;;6.75;6.00;;;;;;;;;;5073081;28;20205;-81
2023/02/06 05:00:33;;;;;;;13.27;7.28;;;;;;;;;;5073930;28;20209;-82
2023/02/06 05:03:02;;;;;;;9.88;6.78;;;;;;;;;;5074029;28;20217;-82
2023/02/06 05:05:29;;;;;;;9.48;6.38;;;;;;;;;;5073892;28;20325;-82
2023/02/06 05:07:57;;;;;;;9.80;7.15;;;;;;;;;;5073567;28;20197;-82
2023/02/06 05:10:25;;;;;;;8.18;6.32;;;;;;;;;;5073394;28;20587;-82
2023/02/06 05:12:54;;;;;;;6.85;5.93;;;;;;;;;;5072722;28;20232;-82
2023/02/06 05:15:22;;;;;;;10.02;6.10;;;;;;;;;;5073826;28;20233;-83
2023/02/06 05:17:49;;;;;;;8.82;5.55;;;;;;;;;;5073517;28;20683;-81
2023/02/06 05:20:18;;;;;;;6.80;6.07;;;;;;;;;;5072800;28;20292;-82
2023/02/06 05:22:46;;;;;;;6.70;5.68;;;;;;;;;;5072931;28;20235;-82
2023/02/06 05:25:13;;;;;;;7.13;6.28;;;;;;;;;;5072946;28;20231;-82
2023/02/06 05:27:41;;;;;;;7.22;5.78;;;;;;;;;;5072709;28;20361;-82
2023/02/06 05:30:10;;;;;;;6.70;5.15;;;;;;;;;;5072308;28;20291;-82
2023/02/06 05:32:37;;;;;;;5.45;4.90;;;;;;;;;;5073456;28;20201;-82
2023/02/06 05:35:06;;;;;;;6.82;6.07;;;;;;;;;;5073136;28;20600;-82
2023/02/06 05:37:36;;;;;;;6.40;5.63;;;;;;;;;;5073214;28;20300;-81
2023/02/06 05:40:03;;;;;;;7.78;5.30;;;;;;;;;;5072433;28;20641;-82
2023/02/06 05:42:31;;;;;;;7.97;6.45;;;;;;;;;;5073693;28;20256;-83
2023/02/06 05:44:58;;;;;;;7.10;5.90;;;;;;;;;;5073607;28;20308;-82
2023/02/06 05:47:26;;;;;;;7.05;6.20;;;;;;;;;;5073752;28;20743;-83
2023/02/06 05:49:53;;;;;;;7.97;7.00;;;;;;;;;;5073276;28;20227;-84
2023/02/06 05:52:21;;;;;;;6.97;6.28;;;;;;;;;;5084047;28;20254;-83
2023/02/06 05:54:49;;;;;;;13.15;6.20;;;;;;;;;;5094318;28;20614;-84
2023/02/06 05:57:17;;;;;;;7.88;6.47;;;;;;;;;;5095199;28;20310;-83
2023/02/06 05:59:44;;;;;;;7.05;5.97;;;;;;;;;;5092974;28;20200;-83
2023/02/06 06:02:12;;;;;;;7.53;6.25;;;;;;;;;;5093806;28;20230;-82
2023/02/06 06:04:39;;;;;;;8.50;4.88;;;;;;;;;;5092878;28;20232;-83
2023/02/06 06:07:07;;;;;;;6.57;5.13;;;;;;;;;;5093564;28;20315;-82
2023/02/06 06:09:34;;;;;;;10.40;5.22;;;;;;;;;;5093857;28;20235;-83
2023/02/06 06:12:03;;;;;;;8.63;5.50;;;;;;;;;;5093045;28;20729;-82
2023/02/06 06:14:31;;;;;;;6.20;5.57;;;;;;;;;;5091752;28;20223;-83
2023/02/06 06:16:58;;;;;;;7.90;5.82;;;;;;;;;;5091262;28;20676;-82
2023/02/06 06:19:26;;;;;;;5.93;5.32;;;;;;;;;;5071155;28;20204;-81
2023/02/06 06:21:53;;;;;;;6.53;5.47;;;;;;;;;;5073009;28;20231;-82
2023/02/06 06:24:21;;;;;;;8.77;5.25;;;;;;;;;;5074819;28;20312;-84
2023/02/06 06:26:48;;;;;;;10.00;5.95;;;;;;;;;;5075352;28;20197;-83
2023/02/06 06:29:17;;;;;;;7.38;5.82;;;;;;;;;;5074290;28;20296;-83
2023/02/06 06:31:45;;;;;;;4.97;4.30;;;;;;;;;;5074507;28;20232;-83
2023/02/06 06:34:12;;;;;;;8.13;5.65;;;;;;;;;;5074770;28;20263;-83
2023/02/06 06:36:40;;;;;;;8.15;6.07;;;;;;;;;;5074871;28;20197;-82
2023/02/06 06:39:07;;;;;;;10.63;5.45;;;;;;;;;;5072728;28;20215;-82
2023/02/06 06:41:35;;;;;;;7.00;5.85;;;;;;;;;;5073477;28;20229;-82
2023/02/06 06:44:02;;;;;;;7.97;6.07;;;;;;;;;;5072965;28;20308;-84
2023/02/06 06:46:31;;;;;;;6.15;4.68;;;;;;;;;;5073226;28;20227;-81
2023/02/06 06:49:00;;;;;;;7.82;5.60;;;;;;;;;;5073170;28;20295;-82
2023/02/06 06:51:28;;;;;;;5.63;4.95;;;;;;;;;;5072752;28;20575;-82
2023/02/06 06:53:55;;;;;;;7.28;5.72;;;;;;;;;;5074095;28;20236;-83
2023/02/06 06:56:23;;;;;;;9.73;5.18;;;;;;;;;;5074017;28;20205;-83
2023/02/06 06:58:51;;;;;;;7.75;4.78;;;;;;;;;;5073247;28;20223;-82
2023/02/06 07:01:19;;;;;;;8.05;5.20;;;;;;;;;;5072671;28;20288;-82
2023/02/06 07:06:19;;;;;;;6.28;4.47;;;;;;;;;;5090675;22;20237;-85
2023/02/06 07:08:46;;;;;;;6.25;4.88;;;;;;;;;;5072313;28;20756;-85
2023/02/06 07:11:15;;;;;;;6.50;5.25;;;;;;;;;;5073191;28;20244;-85
2023/02/06 07:13:44;;;;;;;6.65;5.20;;;;;;;;;;5073111;28;20646;-84
2023/02/06 07:16:12;;;;;;;5.47;4.88;;;;;;;;;;5072210;28;20233;-85
2023/02/06 07:18:41;;;;;;;6.07;5.07;;;;;;;;;;5072807;28;20225;-85
2023/02/06 07:21:10;;;;;;;8.48;5.72;;;;;;;;;;5073050;28;20201;-85
2023/02/06 07:23:39;;;;;;;7.15;4.60;;;;;;;;;;5073262;28;20221;-86
2023/02/06 07:26:06;;;;;;;8.60;5.47;;;;;;;;;;5074350;28;20522;-86
2023/02/06 07:28:34;;;;;;;7.72;4.50;;;;;;;;;;5073283;28;20304;-85
2023/02/06 07:31:03;;;;;;;6.90;5.47;;;;;;;;;;5072671;28;20612;-86
2023/02/06 07:33:31;;;;;;;7.18;4.55;;;;;;;;;;5073186;28;20213;-85
2023/02/06 07:35:59;;;;;;;8.20;4.65;;;;;;;;;;5072983;28;20247;-85
2023/02/06 07:38:26;;;;;;;5.68;5.07;;;;;;;;;;5073863;28;20225;-85
2023/02/06 07:40:57;;;;;;;6.75;5.43;;;;;;;;;;5073386;28;20287;-85
2023/02/06 07:43:25;;;;;;;9.25;5.57;;;;;;;;;;5072817;28;20220;-85
2023/02/06 07:45:52;;;;;;;5.30;4.72;;;;;;;;;;5073025;28;20232;-84
2023/02/06 07:48:20;;;;;;;15.70;7.30;;;;;;;;;;5072945;28;20266;-84
2023/02/06 07:50:47;;;;;;;7.75;4.72;;;;;;;;;;5072698;28;20623;-84
2023/02/06 07:53:15;;;;;;;6.45;5.57;;;;;;;;;;5073106;28;20717;-84
2023/02/06 07:55:42;;;;;;;8.32;5.05;;;;;;;;;;5073093;28;20614;-85
2023/02/06 07:58:11;;;;;;;8.70;4.78;;;;;;;;;;5073224;28;20688;-85
2023/02/06 08:00:39;;;;;;;13.70;6.65;;;;;;;;;;5073196;28;20201;-85
2023/02/06 08:03:07;;;;;;;11.10;5.75;;;;;;;;;;5072232;28;20808;-85
2023/02/06 08:05:35;;;;;;;13.07;6.13;;;;;;;;;;5073438;28;20211;-85
2023/02/06 08:08:02;;;;;;;6.47;5.03;;;;;;;;;;5072684;28;20249;-84
2023/02/06 08:10:30;;;;;;;5.93;3.78;;;;;;;;;;5072747;28;20304;-85
2023/02/06 08:12:57;;;;;;;9.02;5.47;;;;;;;;;;5072571;28;20296;-85
2023/02/06 08:15:26;;;;;;;6.22;4.38;;;;;;;;;;5072478;28;20284;-85
2023/02/06 08:17:53;;;;;;;5.95;4.32;;;;;;;;;;5070997;28;20581;-85
2023/02/06 08:20:21;;;;;;;9.60;5.45;;;;;;;;;;5071377;28;20296;-85
2023/02/06 08:22:48;;;;;;;9.88;4.78;;;;;;;;;;5071139;28;20284;-86
2023/02/06 08:25:16;;;;;;;7.78;5.18;;;;;;;;;;5071224;28;20316;-84
2023/02/06 08:27:43;;;;;;;7.25;5.45;;;;;;;;;;5071547;28;20217;-86
2023/02/06 08:30:13;;;;;;;8.88;5.00;;;;;;;;;;5075282;28;20301;-86
2023/02/06 08:32:41;;;;;;;8.70;4.47;;;;;;;;;;5075472;28;20245;-86
2023/02/06 08:35:09;;;;;;;10.75;6.15;;;;;;;;;;5075963;28;20280;-87
2023/02/06 08:37:37;;;;;;;6.40;5.25;;;;;;;;;;5075802;28;20307;-86
2023/02/06 08:40:05;;;;;;;10.50;5.10;;;;;;;;;;5075239;28;20205;-86
2023/02/06 08:42:33;;;;;;;13.45;6.75;;;;;;;;;;5075619;28;20849;-87
2023/02/06 08:45:00;;;;;;;7.72;5.13;;;;;;;;;;5076011;28;20312;-86
2023/02/06 08:47:28;;;;;;;8.23;5.65;;;;;;;;;;5075558;28;20249;-86
2023/02/06 08:49:56;;;;;;;13.88;7.05;;;;;;;;;;5075180;28;20284;-86
2023/02/06 08:52:24;;;;;;;12.95;6.55;;;;;;;;;;5076140;28;20239;-86
2023/02/06 08:54:51;;;;;;;12.07;6.45;;;;;;;;;;5075551;28;20292;-86
2023/02/06 08:57:19;;;;;;;14.27;5.70;;;;;;;;;;5075890;28;20205;-86
2023/02/06 08:59:46;;;;;;;14.20;6.80;;;;;;;;;;5075035;28;20197;-86
2023/02/06 09:02:14;;;;;;;11.88;6.47;;;;;;;;;;5075413;28;20209;-86
2023/02/06 09:04:42;;;;;;;13.68;7.68;;;;;;;;;;5075843;28;20316;-86
2023/02/06 09:07:11;;;;;;;13.02;6.18;;;;;;;;;;5075861;28;20284;-86
2023/02/06 09:09:40;;;;;;;13.98;6.53;;;;;;;;;;5074982;28;20240;-87
2023/02/06 09:12:16;;;;;;;11.63;7.10;;;;;;;;;;5074808;28;20276;-86
2023/02/06 09:14:44;;;;;;;10.93;6.20;;;;;;;;;;5075397;28;20204;-87
2023/02/06 09:17:11;;;;;;;16.48;6.55;;;;;;;;;;5075755;28;20231;-85
2023/02/06 09:19:39;;;;;;;8.30;5.38;;;;;;;;;;5074052;28;20661;-86
2023/02/06 09:22:06;;;;;;;9.43;5.97;;;;;;;;;;5075761;28;20287;-86
2023/02/06 09:24:35;;;;;;;10.27;6.72;;;;;;;;;;5075276;28;20225;-86
2023/02/06 09:27:03;;;;;;;11.93;7.25;;;;;;;;;;5074185;28;20201;-86
2023/02/06 09:29:31;;;;;;;17.40;6.22;;;;;;;;;;5074357;28;20570;-85
2023/02/06 09:31:59;;;;;;;10.82;5.95;;;;;;;;;;5075261;28;20216;-86
2023/02/06 09:34:27;;;;;;;16.83;6.60;;;;;;;;;;5074836;28;20683;-86
2023/02/06 09:36:55;;;;;;;11.48;5.25;;;;;;;;;;5074722;28;20296;-86
2023/02/06 09:39:23;;;;;;;8.50;5.75;;;;;;;;;;5073924;28;20216;-86
2023/02/06 09:41:55;;;;;;;11.20;5.80;;;;;;;;;;5075715;28;20205;-86
2023/02/06 09:44:29;;;;;;;13.25;7.10;;;;;;;;;;5075009;28;20205;-87
2023/02/06 09:47:04;;;;;;;9.80;6.32;;;;;;;;;;5075744;28;20271;-85
2023/02/06 09:49:39;;;;;;;15.60;7.25;;;;;;;;;;5074291;28;20207;-86
2023/02/06 09:52:26;;;;;;;12.57;5.78;;;;;;;;;;5074534;28;20272;-86
2023/02/06 09:55:00;;;;;;;12.05;7.07;;;;;;;;;;5074232;28;20181;-84
2023/02/06 09:57:40;;;;;;;9.15;6.25;;;;;;;;;;5073945;28;20231;-85
2023/02/06 10:00:22;;;;;;;11.18;6.70;;;;;;;;;;5073728;28;20285;-86
2023/02/06 10:03:16;;;;;;;14.85;7.03;;;;;;;;;;5055224;28;20676;-85
2023/02/06 10:05:52;;;;;;;13.73;5.60;;;;;;;;;;5053993;28;20245;-85
2023/02/06 10:08:24;;;;;;;8.27;6.05;;;;;;;;;;5053271;28;20221;-85
2023/02/06 10:10:55;;;;;;;9.15;6.03;;;;;;;;;;5054056;28;20208;-86
2023/02/06 10:13:30;;;;;;;12.02;6.10;;;;;;;;;;5054622;28;20711;-87
2023/02/06 10:16:01;;;;;;;14.43;7.25;;;;;;;;;;5054128;28;20264;-85
2023/02/06 10:18:34;;;;;;;9.68;6.25;;;;;;;;;;5067172;28;20775;-85
2023/02/06 10:21:06;;;;;;;11.00;5.85;;;;;;;;;;5073352;28;20219;-85
2023/02/06 10:23:39;;;;;;;8.30;6.30;;;;;;;;;;5074385;28;20243;-86
2023/02/06 10:26:16;;;;;;;14.68;6.68;;;;;;;;;;5074448;28;20307;-86
2023/02/06 10:28:47;;;;;;;11.38;5.50;;;;;;;;;;5073751;28;20224;-86
2023/02/06 10:31:32;;;;;;;9.82;5.72;;;;;;;;;;5067675;28;20205;-86
2023/02/06 10:34:17;;;;;;;7.97;6.25;;;;;;;;;;5053791;28;20221;-86
2023/02/06 10:36:58;;;;;;;14.45;7.10;;;;;;;;;;5053279;28;20619;-85
2023/02/06 10:39:54;;;;;;;9.60;5.78;;;;;;;;;;5053218;28;20230;-85
2023/02/06 10:42:28;;;;;;;9.88;6.70;;;;;;;;;;5053809;28;20305;-86
2023/02/06 10:45:02;;;;;;;11.43;6.15;;;;;;;;;;5053647;28;20212;-85
2023/02/06 10:47:35;;;;;;;11.13;5.45;;;;;;;;;;5059060;28;20227;-86
2023/02/06 10:50:20;;;;;;;13.73;6.72;;;;;;;;;;5072121;28;20277;-86
2023/02/06 10:52:47;;;;;;;9.70;5.50;;;;;;;;;;5072623;28;20216;-86
2023/02/06 10:55:22;;;;;;;8.70;5.47;;;;;;;;;;5072751;28;20192;-86
2023/02/06 10:57:56;;;;;;;9.35;5.43;;;;;;;;;;5073272;28;20654;-86
2023/02/06 11:00:27;;;;;;;5.38;4.53;;;;;;;;;;5073278;28;20193;-87
2023/02/06 11:02:58;;;;;;;11.13;5.63;;;;;;;;;;5072178;28;20296;-86
2023/02/06 11:05:28;;;;;;;8.27;5.30;;;;;;;;;;5072358;28;20938;-85
2023/02/06 11:07:59;;;;;;;6.85;5.07;;;;;;;;;;5073075;28;20221;-87
2023/02/06 11:10:28;;;;;;;6.63;4.97;;;;;;;;;;5073344;28;20622;-87
2023/02/06 11:13:03;;;;;;;7.70;5.22;;;;;;;;;;5071628;28;20205;-86
2023/02/06 11:15:34;;;;;;;9.20;5.20;;;;;;;;;;5072955;28;20177;-88
2023/02/06 11:18:05;;;;;;;8.20;4.72;;;;;;;;;;5072363;28;20291;-87
2023/02/06 11:20:35;;;;;;;7.60;4.57;;;;;;;;;;5072997;28;20216;-87
2023/02/06 11:23:19;;;;;;;8.43;5.43;;;;;;;;;;5074804;28;20292;-86
2023/02/06 11:25:50;;;;;;;8.88;4.55;;;;;;;;;;5075886;28;20227;-86
2023/02/06 11:28:21;;;;;;;10.32;5.63;;;;;;;;;;5074776;28;20600;-86
2023/02/06 11:30:58;;;;;;;7.10;4.60;;;;;;;;;;5073756;28;20185;-86
2023/02/06 11:33:35;;;;;;;8.60;5.65;;;;;;;;;;5074836;28;20272;-86
2023/02/06 11:36:04;;;;;;;10.38;5.15;;;;;;;;;;5074053;28;20685;-86
2023/02/06 11:38:32;;;;;;;14.25;6.65;;;;;;;;;;5073438;28;20232;-86
2023/02/06 11:41:02;;;;;;;10.02;5.82;;;;;;;;;;5074604;28;20308;-87
2023/02/06 11:43:33;;;;;;;12.50;6.15;;;;;;;;;;5074525;28;20276;-87
2023/02/06 11:46:15;;;;;;;10.48;5.15;;;;;;;;;;5074385;28;20211;-85
2023/02/06 11:48:45;;;;;;;11.63;5.50;;;;;;;;;;5074546;28;20814;-86
2023/02/06 11:51:13;;;;;;;7.65;5.05;;;;;;;;;;5074921;28;20199;-85
2023/02/06 11:53:56;;;;;;;7.30;4.75;;;;;;;;;;5074008;28;20801;-86
2023/02/06 11:56:24;;;;;;;8.57;5.00;;;;;;;;;;5074968;28;20207;-86
2023/02/06 11:59:04;;;;;;;11.20;5.95;;;;;;;;;;5074851;28;20684;-86
2023/02/06 12:01:42;;;;;;;8.18;4.15;;;;;;;;;;5074961;28;20207;-86
2023/02/06 12:04:22;;;;;;;8.82;4.60;;;;;;;;;;5080941;28;20192;-87
2023/02/06 12:06:54;;;;;;;13.07;6.25;;;;;;;;;;5078062;28;20759;-86
2023/02/06 12:09:22;;;;;;;8.20;3.88;;;;;;;;;;5075887;28;20228;-85
2023/02/06 12:11:55;;;;;;;8.73;3.83;;;;;;;;;;5076066;28;20296;-85
2023/02/06 12:14:28;;;;;;;6.63;4.15;;;;;;;;;;5076265;28;20195;-86
2023/02/06 12:16:57;;;;;;;6.07;3.92;;;;;;;;;;5075660;28;20189;-87
2023/02/06 12:19:30;;;;;;;9.70;3.67;;;;;;;;;;5076454;28;20213;-84
2023/02/06 12:22:02;;;;;;;13.07;4.53;;;;;;;;;;5076523;28;20209;-85
2023/02/06 12:24:33;;;;;;;5.57;3.22;;;;;;;;;;5075832;28;20192;-85
2023/02/06 12:27:05;;;;;;;7.47;3.58;;;;;;;;;;5079976;28;20208;-85
2023/02/06 12:29:36;;;;;;;10.90;3.20;;;;;;;;;;5078649;28;20280;-85
2023/02/06 12:32:13;;;;;;;6.63;3.55;;;;;;;;;;5079471;28;20197;-85
2023/02/06 12:34:52;;;;;;;11.13;4.03;;;;;;;;;;5079482;28;20196;-85
2023/02/06 12:37:30;;;;;;;8.45;3.60;;;;;;;;;;5078629;28;20191;-85
2023/02/06 12:39:58;;;;;;;9.45;4.05;;;;;;;;;;5079215;28;20186;-85
2023/02/06 12:42:38;;;;;;;11.48;4.15;;;;;;;;;;5076885;28;20307;-85
2023/02/06 12:45:19;;;;;;;6.47;3.40;;;;;;;;;;5078386;28;20173;-85
2023/02/06 12:47:53;;;;;;;8.00;3.22;;;;;;;;;;5079453;28;20300;-84
2023/02/06 12:50:25;;;;;;;4.45;3.50;;;;;;;;;;5078313;28;20272;-84
2023/02/06 12:52:56;;;;;;;7.38;3.90;;;;;;;;;;5078594;28;20215;-85
2023/02/06 12:55:28;;;;;;;6.90;3.03;;;;;;;;;;5080571;28;20261;-85
2023/02/06 12:57:56;;;;;;;3.45;2.70;;;;;;;;;;5079841;28;20261;-85
2023/02/06 13:00:49;;;;;;;5.35;3.00;;;;;;;;;;5078749;28;20200;-85
2023/02/06 13:03:33;;;;;;;5.18;3.00;;;;;;;;;;5057845;28;20297;-85
2023/02/06 13:06:11;;;;;;;7.68;3.22;;;;;;;;;;5059203;28;20307;-85
2023/02/06 13:08:46;;;;;;;4.60;3.08;;;;;;;;;;5060053;28;20228;-85
2023/02/06 13:11:31;;;;;;;7.25;3.40;;;;;;;;;;5058720;28;20886;-85
2023/02/06 13:14:08;;;;;;;4.57;2.65;;;;;;;;;;5057012;28;20201;-86
2023/02/06 13:16:55;;;;;;;4.70;2.80;;;;;;;;;;5055376;28;20272;-85
2023/02/06 13:19:49;;;;;;;7.70;3.38;;;;;;;;;;5056372;28;20225;-84
2023/02/06 13:22:43;;;;;;;9.18;3.35;;;;;;;;;;5056004;28;20190;-86
2023/02/06 13:25:53;;;;;;;6.78;3.15;;;;;;;;;;5052663;28;20255;-85
2023/02/06 13:28:55;;;;;;;4.05;3.22;;;;;;;;;;5040651;28;20626;-85
2023/02/06 13:31:30;;;;;;;7.47;2.72;;;;;;;;;;5056039;28;20189;-85
2023/02/06 13:34:06;;;;;;;4.93;2.75;;;;;;;;;;5056421;28;20201;-85
2023/02/06 13:36:51;;;;;;;9.05;3.25;;;;;;;;;;5057973;28;20710;-86
2023/02/06 13:39:33;;;;;;;5.35;2.35;;;;;;;;;;5057950;28;20214;-85
2023/02/06 13:42:34;;;;;;;4.60;2.63;;;;;;;;;;5057555;28;20174;-85
2023/02/06 13:45:05;;;;;;;3.47;2.38;;;;;;;;;;5056654;28;20258;-85
2023/02/06 13:47:57;;;;;;;5.50;2.45;;;;;;;;;;5055156;28;20261;-85
2023/02/06 13:50:56;;;;;;;5.03;2.42;;;;;;;;;;5054414;28;20261;-86
2023/02/06 13:53:53;;;;;;;3.05;2.08;;;;;;;;;;5054882;28;20212;-86
2023/02/06 13:56:44;;;;;;;4.00;2.35;;;;;;;;;;5029115;28;20224;-86
2023/02/06 13:59:17;;;;;;;6.38;2.53;;;;;;;;;;5054281;28;20213;-86
2023/02/06 14:01:45;;;;;;;5.68;2.55;;;;;;;;;;5055363;28;20705;-85
2023/02/06 14:04:27;;;;;;;5.97;3.20;;;;;;;;;;5055139;28;20667;-85
2023/02/06 14:07:29;;;;;;;6.47;2.90;;;;;;;;;;5054794;28;20253;-85
2023/02/06 14:13:20;;;;;;;3.60;2.90;;;;;;;;;;5055091;28;20267;-86
2023/02/06 14:15:53;;;;;;;3.15;2.20;;;;;;;;;;5054322;28;20182;-85
2023/02/06 14:18:42;;;;;;;7.10;2.78;;;;;;;;;;5054207;28;20270;-85
2023/02/06 14:21:24;;;;;;;5.72;2.20;;;;;;;;;;5055017;28;20229;-85
2023/02/06 14:24:13;;;;;;;4.40;2.58;;;;;;;;;;5054618;28;20266;-85
2023/02/06 14:26:49;;;;;;;5.15;2.63;;;;;;;;;;5054208;28;20246;-85
2023/02/06 14:29:28;;;;;;;6.55;2.45;;;;;;;;;;5054594;28;20244;-85
2023/02/06 14:32:19;;;;;;;3.03;2.38;;;;;;;;;;5054929;28;20361;-85
2023/02/06 14:35:02;;;;;;;2.95;2.30;;;;;;;;;;5053795;28;20226;-85
2023/02/06 14:37:46;;;;;;;4.97;2.30;;;;;;;;;;5054714;28;20557;-85
2023/02/06 14:40:21;;;;;;;3.78;2.38;;;;;;;;;;5054389;28;20518;-85
2023/02/06 14:42:52;;;;;;;3.95;2.40;;;;;;;;;;5053768;28;20216;-85
2023/02/06 14:45:29;;;;;;;3.97;2.65;;;;;;;;;;5054240;28;20593;-85
2023/02/06 14:47:59;;;;;;;2.50;1.80;;;;;;;;;;5053136;28;20232;-85
2023/02/06 14:50:30;;;;;;;3.00;1.80;;;;;;;;;;5053161;28;20284;-85
2023/02/06 14:53:00;;;;;;;1.85;1.75;;;;;;;;;;5052864;28;20197;-85
2023/02/06 14:55:37;;;;;;;4.97;2.45;;;;;;;;;;5052985;28;20265;-84
2023/02/06 14:58:18;;;;;;;10.15;4.95;;;;;;;;;;5053166;28;20758;-85
2023/02/06 15:00:45;;;;;;;6.18;4.53;;;;;;;;;;5053133;28;20213;-85
2023/02/06 15:03:17;;;;;;;5.03;3.50;;;;;;;;;;5052573;28;20932;-85
2023/02/06 15:05:45;;;;;;;6.45;3.22;;;;;;;;;;5052344;28;20233;-84
2023/02/06 15:08:18;;;;;;;6.82;3.75;;;;;;;;;;5052244;28;20337;-85
2023/02/06 15:10:47;;;;;;;5.35;3.90;;;;;;;;;;5052590;28;20282;-85
2023/02/06 15:13:23;;;;;;;6.10;3.28;;;;;;;;;;5052730;28;20251;-86
2023/02/06 15:15:56;;;;;;;5.10;3.78;;;;;;;;;;5052659;28;20284;-85
2023/02/06 15:18:24;;;;;;;6.93;4.25;;;;;;;;;;5065814;28;20658;-84